sensor_id;sensor_type;location;lat;lon;timestamp;P1;durP1;ratioP1;P2;durP2;ratioP2
61091;SDS011;46975;51.898;11.444;2022-10-30T00:01:15;15.75;;;8.73;;
61091;SDS011;46975;51.898;11.444;2022-10-30T00:03:40;18.58;;;10.38;;
61091;SDS011;46975;51.898;11.444;2022-10-30T00:06:06;12.75;;;8.02;;
61091;SDS011;46975;51.898;11.444;2022-10-30T00:08:32;17.35;;;7.70;;
61091;SDS011;46975;51.898;11.444;2022-10-30T00:11:03;15.88;;;8.02;;
61091;SDS011;46975;51.898;11.444;2022-10-30T00:13:33;14.05;;;7.60;;
61091;SDS011;46975;51.898;11.444;2022-10-30T00:15:58;15.13;;;7.45;;
61091;SDS011;46975;51.898;11.444;2022-10-30T00:18:29;13.68;;;6.70;;
61091;SDS011;46975;51.898;11.444;2022-10-30T00:20:54;11.52;;;6.80;;
61091;SDS011;46975;51.898;11.444;2022-10-30T00:23:20;13.63;;;6.00;;
61091;SDS011;46975;51.898;11.444;2022-10-30T00:25:46;17.23;;;6.43;;
61091;SDS011;46975;51.898;11.444;2022-10-30T00:28:11;13.63;;;7.85;;
61091;SDS011;46975;51.898;11.444;2022-10-30T00:30:37;15.60;;;5.88;;
61091;SDS011;46975;51.898;11.444;2022-10-30T00:33:03;10.60;;;5.80;;
61091;SDS011;46975;51.898;11.444;2022-10-30T00:35:29;15.23;;;7.43;;
61091;SDS011;46975;51.898;11.444;2022-10-30T00:37:55;10.70;;;7.05;;
61091;SDS011;46975;51.898;11.444;2022-10-30T00:40:22;14.23;;;6.95;;
61091;SDS011;46975;51.898;11.444;2022-10-30T00:42:47;24.10;;;8.02;;
61091;SDS011;46975;51.898;11.444;2022-10-30T00:45:14;11.57;;;5.72;;
61091;SDS011;46975;51.898;11.444;2022-10-30T00:47:45;12.37;;;5.40;;
61091;SDS011;46975;51.898;11.444;2022-10-30T00:50:24;11.35;;;4.60;;
61091;SDS011;46975;51.898;11.444;2022-10-30T00:55:26;11.25;;;4.78;;
61091;SDS011;46975;51.898;11.444;2022-10-30T00:57:58;11.20;;;5.03;;
61091;SDS011;46975;51.898;11.444;2022-10-30T01:00:27;14.07;;;5.50;;
61091;SDS011;46975;51.898;11.444;2022-10-30T01:02:54;10.55;;;5.65;;
61091;SDS011;46975;51.898;11.444;2022-10-30T01:05:21;8.23;;;5.32;;
61091;SDS011;46975;51.898;11.444;2022-10-30T01:07:49;14.30;;;4.47;;
61091;SDS011;46975;51.898;11.444;2022-10-30T01:10:14;11.70;;;4.93;;
61091;SDS011;46975;51.898;11.444;2022-10-30T01:12:41;14.15;;;6.38;;
61091;SDS011;46975;51.898;11.444;2022-10-30T01:15:08;11.95;;;5.80;;
61091;SDS011;46975;51.898;11.444;2022-10-30T01:18:01;8.88;;;6.18;;
61091;SDS011;46975;51.898;11.444;2022-10-30T01:29:25;12.35;;;4.88;;
61091;SDS011;46975;51.898;11.444;2022-10-30T01:35:18;12.25;;;6.15;;
61091;SDS011;46975;51.898;11.444;2022-10-30T01:37:56;10.02;;;6.13;;
61091;SDS011;46975;51.898;11.444;2022-10-30T01:40:31;11.45;;;6.38;;
61091;SDS011;46975;51.898;11.444;2022-10-30T01:42:58;15.30;;;6.05;;
61091;SDS011;46975;51.898;11.444;2022-10-30T01:48:30;13.85;;;6.65;;
61091;SDS011;46975;51.898;11.444;2022-10-30T01:59:46;9.35;;;4.38;;
61091;SDS011;46975;51.898;11.444;2022-10-30T02:02:15;7.60;;;2.90;;
61091;SDS011;46975;51.898;11.444;2022-10-30T02:04:41;13.80;;;3.78;;
61091;SDS011;46975;51.898;11.444;2022-10-30T02:07:07;7.20;;;2.95;;
61091;SDS011;46975;51.898;11.444;2022-10-30T02:09:35;11.10;;;2.92;;
61091;SDS011;46975;51.898;11.444;2022-10-30T02:12:01;9.77;;;3.13;;
61091;SDS011;46975;51.898;11.444;2022-10-30T02:14:47;9.45;;;3.83;;
61091;SDS011;46975;51.898;11.444;2022-10-30T02:17:16;10.02;;;3.85;;
61091;SDS011;46975;51.898;11.444;2022-10-30T02:19:42;7.63;;;4.38;;
61091;SDS011;46975;51.898;11.444;2022-10-30T02:22:08;7.43;;;3.17;;
61091;SDS011;46975;51.898;11.444;2022-10-30T02:24:35;9.52;;;4.00;;
61091;SDS011;46975;51.898;11.444;2022-10-30T02:27:00;7.32;;;3.38;;
61091;SDS011;46975;51.898;11.444;2022-10-30T02:29:26;10.32;;;3.28;;
61091;SDS011;46975;51.898;11.444;2022-10-30T02:31:52;8.38;;;3.25;;
61091;SDS011;46975;51.898;11.444;2022-10-30T02:34:17;7.45;;;3.95;;
61091;SDS011;46975;51.898;11.444;2022-10-30T02:36:43;8.95;;;3.35;;
61091;SDS011;46975;51.898;11.444;2022-10-30T02:39:09;6.50;;;4.13;;
61091;SDS011;46975;51.898;11.444;2022-10-30T02:41:35;9.40;;;4.13;;
61091;SDS011;46975;51.898;11.444;2022-10-30T02:44:00;12.07;;;4.22;;
61091;SDS011;46975;51.898;11.444;2022-10-30T02:46:26;17.33;;;4.57;;
61091;SDS011;46975;51.898;11.444;2022-10-30T02:48:52;11.57;;;4.10;;
61091;SDS011;46975;51.898;11.444;2022-10-30T02:51:18;8.38;;;4.22;;
61091;SDS011;46975;51.898;11.444;2022-10-30T02:53:43;10.38;;;4.00;;
61091;SDS011;46975;51.898;11.444;2022-10-30T02:56:10;8.15;;;3.55;;
61091;SDS011;46975;51.898;11.444;2022-10-30T02:58:37;15.15;;;4.93;;
61091;SDS011;46975;51.898;11.444;2022-10-30T03:01:07;10.05;;;4.00;;
61091;SDS011;46975;51.898;11.444;2022-10-30T03:03:34;10.73;;;4.35;;
61091;SDS011;46975;51.898;11.444;2022-10-30T03:06:03;9.32;;;3.90;;
61091;SDS011;46975;51.898;11.444;2022-10-30T03:08:31;6.97;;;3.63;;
61091;SDS011;46975;51.898;11.444;2022-10-30T03:10:58;9.00;;;4.47;;
61091;SDS011;46975;51.898;11.444;2022-10-30T03:13:29;11.90;;;3.65;;
61091;SDS011;46975;51.898;11.444;2022-10-30T03:15:59;13.07;;;4.10;;
61091;SDS011;46975;51.898;11.444;2022-10-30T03:18:26;10.90;;;3.70;;
61091;SDS011;46975;51.898;11.444;2022-10-30T03:20:56;11.98;;;3.80;;
61091;SDS011;46975;51.898;11.444;2022-10-30T03:23:23;5.70;;;3.17;;
61091;SDS011;46975;51.898;11.444;2022-10-30T03:25:56;7.95;;;3.10;;
61091;SDS011;46975;51.898;11.444;2022-10-30T03:28:23;15.02;;;3.55;;
61091;SDS011;46975;51.898;11.444;2022-10-30T03:30:51;14.40;;;4.47;;
61091;SDS011;46975;51.898;11.444;2022-10-30T03:33:22;10.02;;;3.65;;
61091;SDS011;46975;51.898;11.444;2022-10-30T03:35:48;10.98;;;4.18;;
61091;SDS011;46975;51.898;11.444;2022-10-30T03:38:13;5.78;;;3.67;;
61091;SDS011;46975;51.898;11.444;2022-10-30T03:40:39;7.88;;;3.90;;
61091;SDS011;46975;51.898;11.444;2022-10-30T03:43:05;6.55;;;3.67;;
61091;SDS011;46975;51.898;11.444;2022-10-30T03:45:32;14.50;;;3.72;;
61091;SDS011;46975;51.898;11.444;2022-10-30T03:48:02;11.90;;;3.78;;
61091;SDS011;46975;51.898;11.444;2022-10-30T03:50:29;10.23;;;3.90;;
61091;SDS011;46975;51.898;11.444;2022-10-30T03:52:55;9.07;;;3.92;;
61091;SDS011;46975;51.898;11.444;2022-10-30T03:55:22;9.70;;;3.58;;
61091;SDS011;46975;51.898;11.444;2022-10-30T03:57:48;16.52;;;3.38;;
61091;SDS011;46975;51.898;11.444;2022-10-30T04:00:14;9.93;;;3.17;;
61091;SDS011;46975;51.898;11.444;2022-10-30T04:02:44;10.32;;;3.80;;
61091;SDS011;46975;51.898;11.444;2022-10-30T04:05:10;8.73;;;3.70;;
61091;SDS011;46975;51.898;11.444;2022-10-30T04:07:36;11.07;;;3.72;;
61091;SDS011;46975;51.898;11.444;2022-10-30T04:10:02;12.82;;;4.35;;
61091;SDS011;46975;51.898;11.444;2022-10-30T04:12:28;13.23;;;3.70;;
61091;SDS011;46975;51.898;11.444;2022-10-30T04:14:53;13.82;;;4.10;;
61091;SDS011;46975;51.898;11.444;2022-10-30T04:17:20;9.23;;;4.30;;
61091;SDS011;46975;51.898;11.444;2022-10-30T04:19:46;4.85;;;2.70;;
61091;SDS011;46975;51.898;11.444;2022-10-30T04:22:12;7.93;;;3.70;;
61091;SDS011;46975;51.898;11.444;2022-10-30T04:24:37;8.00;;;4.00;;
61091;SDS011;46975;51.898;11.444;2022-10-30T04:27:03;9.95;;;3.85;;
61091;SDS011;46975;51.898;11.444;2022-10-30T04:29:29;9.07;;;3.92;;
61091;SDS011;46975;51.898;11.444;2022-10-30T04:31:55;11.40;;;4.68;;
61091;SDS011;46975;51.898;11.444;2022-10-30T04:34:20;10.38;;;4.38;;
61091;SDS011;46975;51.898;11.444;2022-10-30T04:36:46;10.82;;;4.88;;
61091;SDS011;46975;51.898;11.444;2022-10-30T04:39:12;10.82;;;4.40;;
61091;SDS011;46975;51.898;11.444;2022-10-30T04:41:37;12.27;;;4.38;;
61091;SDS011;46975;51.898;11.444;2022-10-30T04:44:03;12.15;;;3.72;;
61091;SDS011;46975;51.898;11.444;2022-10-30T04:46:30;14.75;;;6.53;;
61091;SDS011;46975;51.898;11.444;2022-10-30T04:48:56;8.45;;;4.13;;
61091;SDS011;46975;51.898;11.444;2022-10-30T04:51:22;9.27;;;5.13;;
61091;SDS011;46975;51.898;11.444;2022-10-30T04:53:48;11.18;;;4.30;;
61091;SDS011;46975;51.898;11.444;2022-10-30T04:56:13;9.65;;;3.97;;
61091;SDS011;46975;51.898;11.444;2022-10-30T04:58:40;11.80;;;4.47;;
61091;SDS011;46975;51.898;11.444;2022-10-30T05:01:06;10.13;;;4.38;;
61091;SDS011;46975;51.898;11.444;2022-10-30T05:03:32;9.68;;;4.65;;
61091;SDS011;46975;51.898;11.444;2022-10-30T05:05:59;14.95;;;4.82;;
61091;SDS011;46975;51.898;11.444;2022-10-30T05:08:31;9.45;;;4.05;;
61091;SDS011;46975;51.898;11.444;2022-10-30T05:10:57;8.60;;;5.18;;
61091;SDS011;46975;51.898;11.444;2022-10-30T05:13:23;11.75;;;4.22;;
61091;SDS011;46975;51.898;11.444;2022-10-30T05:15:49;11.15;;;4.60;;
61091;SDS011;46975;51.898;11.444;2022-10-30T05:18:14;16.45;;;4.95;;
61091;SDS011;46975;51.898;11.444;2022-10-30T05:20:40;9.02;;;4.53;;
61091;SDS011;46975;51.898;11.444;2022-10-30T05:23:06;8.35;;;4.45;;
61091;SDS011;46975;51.898;11.444;2022-10-30T05:25:31;17.55;;;5.22;;
61091;SDS011;46975;51.898;11.444;2022-10-30T05:28:01;9.50;;;4.65;;
61091;SDS011;46975;51.898;11.444;2022-10-30T05:30:28;11.00;;;4.97;;
61091;SDS011;46975;51.898;11.444;2022-10-30T05:32:58;14.10;;;5.80;;
61091;SDS011;46975;51.898;11.444;2022-10-30T05:35:29;15.57;;;4.57;;
61091;SDS011;46975;51.898;11.444;2022-10-30T05:37:59;16.05;;;5.03;;
61091;SDS011;46975;51.898;11.444;2022-10-30T05:40:26;7.68;;;4.35;;
61091;SDS011;46975;51.898;11.444;2022-10-30T05:42:52;7.38;;;4.22;;
61091;SDS011;46975;51.898;11.444;2022-10-30T05:45:17;10.02;;;5.72;;
61091;SDS011;46975;51.898;11.444;2022-10-30T05:47:48;10.60;;;4.60;;
61091;SDS011;46975;51.898;11.444;2022-10-30T05:50:22;11.30;;;4.63;;
61091;SDS011;46975;51.898;11.444;2022-10-30T05:52:48;22.40;;;5.47;;
61091;SDS011;46975;51.898;11.444;2022-10-30T05:55:14;15.68;;;6.20;;
61091;SDS011;46975;51.898;11.444;2022-10-30T05:57:40;14.90;;;5.30;;
61091;SDS011;46975;51.898;11.444;2022-10-30T06:00:05;8.82;;;5.63;;
61091;SDS011;46975;51.898;11.444;2022-10-30T06:02:32;13.48;;;5.47;;
61091;SDS011;46975;51.898;11.444;2022-10-30T06:04:57;11.55;;;4.93;;
61091;SDS011;46975;51.898;11.444;2022-10-30T06:07:23;11.38;;;5.47;;
61091;SDS011;46975;51.898;11.444;2022-10-30T06:09:49;13.38;;;5.88;;
61091;SDS011;46975;51.898;11.444;2022-10-30T06:12:14;18.92;;;5.50;;
61091;SDS011;46975;51.898;11.444;2022-10-30T06:14:40;18.15;;;6.60;;
61091;SDS011;46975;51.898;11.444;2022-10-30T06:17:05;12.27;;;5.60;;
61091;SDS011;46975;51.898;11.444;2022-10-30T06:19:31;10.68;;;4.75;;
61091;SDS011;46975;51.898;11.444;2022-10-30T06:21:57;14.73;;;6.53;;
61091;SDS011;46975;51.898;11.444;2022-10-30T06:24:22;7.22;;;4.22;;
61091;SDS011;46975;51.898;11.444;2022-10-30T06:26:48;11.85;;;5.00;;
61091;SDS011;46975;51.898;11.444;2022-10-30T06:29:15;17.10;;;6.05;;
61091;SDS011;46975;51.898;11.444;2022-10-30T06:31:40;14.07;;;4.95;;
61091;SDS011;46975;51.898;11.444;2022-10-30T06:34:06;9.40;;;4.97;;
61091;SDS011;46975;51.898;11.444;2022-10-30T06:36:32;19.75;;;5.03;;
61091;SDS011;46975;51.898;11.444;2022-10-30T06:38:57;13.90;;;5.70;;
61091;SDS011;46975;51.898;11.444;2022-10-30T06:41:23;17.55;;;6.30;;
61091;SDS011;46975;51.898;11.444;2022-10-30T06:43:49;14.32;;;4.97;;
61091;SDS011;46975;51.898;11.444;2022-10-30T06:46:14;16.17;;;5.57;;
61091;SDS011;46975;51.898;11.444;2022-10-30T06:48:40;14.02;;;4.88;;
61091;SDS011;46975;51.898;11.444;2022-10-30T06:51:06;15.75;;;5.47;;
61091;SDS011;46975;51.898;11.444;2022-10-30T06:53:31;11.80;;;6.38;;
61091;SDS011;46975;51.898;11.444;2022-10-30T06:55:58;18.98;;;5.28;;
61091;SDS011;46975;51.898;11.444;2022-10-30T06:58:25;15.50;;;5.20;;
61091;SDS011;46975;51.898;11.444;2022-10-30T07:00:51;12.15;;;5.35;;
61091;SDS011;46975;51.898;11.444;2022-10-30T07:03:18;16.48;;;6.07;;
61091;SDS011;46975;51.898;11.444;2022-10-30T07:05:44;12.27;;;6.03;;
61091;SDS011;46975;51.898;11.444;2022-10-30T07:08:10;15.10;;;6.03;;
61091;SDS011;46975;51.898;11.444;2022-10-30T07:10:36;15.88;;;6.13;;
61091;SDS011;46975;51.898;11.444;2022-10-30T07:13:01;18.75;;;6.82;;
61091;SDS011;46975;51.898;11.444;2022-10-30T07:15:27;10.85;;;4.97;;
61091;SDS011;46975;51.898;11.444;2022-10-30T07:20:23;20.58;;;5.53;;
61091;SDS011;46975;51.898;11.444;2022-10-30T07:22:52;14.65;;;5.57;;
61091;SDS011;46975;51.898;11.444;2022-10-30T07:25:18;14.65;;;6.20;;
61091;SDS011;46975;51.898;11.444;2022-10-30T07:27:44;16.52;;;6.32;;
61091;SDS011;46975;51.898;11.444;2022-10-30T07:30:15;10.43;;;5.22;;
61091;SDS011;46975;51.898;11.444;2022-10-30T07:32:43;18.08;;;5.80;;
61091;SDS011;46975;51.898;11.444;2022-10-30T07:35:09;13.18;;;5.22;;
61091;SDS011;46975;51.898;11.444;2022-10-30T07:37:37;12.43;;;5.78;;
61091;SDS011;46975;51.898;11.444;2022-10-30T07:40:04;15.55;;;4.82;;
61091;SDS011;46975;51.898;11.444;2022-10-30T07:42:31;11.43;;;5.32;;
61091;SDS011;46975;51.898;11.444;2022-10-30T07:44:57;14.65;;;7.15;;
61091;SDS011;46975;51.898;11.444;2022-10-30T07:47:23;14.55;;;5.50;;
61091;SDS011;46975;51.898;11.444;2022-10-30T07:49:49;11.98;;;4.43;;
61091;SDS011;46975;51.898;11.444;2022-10-30T07:52:15;16.00;;;4.88;;
61091;SDS011;46975;51.898;11.444;2022-10-30T07:54:41;11.27;;;4.40;;
61091;SDS011;46975;51.898;11.444;2022-10-30T07:57:06;10.32;;;5.25;;
61091;SDS011;46975;51.898;11.444;2022-10-30T07:59:32;13.52;;;4.45;;
61091;SDS011;46975;51.898;11.444;2022-10-30T08:01:57;13.55;;;3.80;;
61091;SDS011;46975;51.898;11.444;2022-10-30T08:04:24;9.80;;;3.90;;
61091;SDS011;46975;51.898;11.444;2022-10-30T08:06:50;9.27;;;3.10;;
61091;SDS011;46975;51.898;11.444;2022-10-30T08:09:17;9.15;;;3.90;;
61091;SDS011;46975;51.898;11.444;2022-10-30T08:11:43;14.80;;;4.32;;
61091;SDS011;46975;51.898;11.444;2022-10-30T08:14:08;15.02;;;4.68;;
61091;SDS011;46975;51.898;11.444;2022-10-30T08:16:34;34.30;;;14.40;;
61091;SDS011;46975;51.898;11.444;2022-10-30T08:18:59;12.27;;;3.60;;
61091;SDS011;46975;51.898;11.444;2022-10-30T08:21:25;18.17;;;4.05;;
61091;SDS011;46975;51.898;11.444;2022-10-30T08:23:51;12.00;;;3.83;;
61091;SDS011;46975;51.898;11.444;2022-10-30T08:26:16;17.10;;;3.67;;
61091;SDS011;46975;51.898;11.444;2022-10-30T08:28:42;11.27;;;3.75;;
61091;SDS011;46975;51.898;11.444;2022-10-30T08:31:08;22.95;;;4.22;;
61091;SDS011;46975;51.898;11.444;2022-10-30T08:33:33;9.77;;;3.38;;
61091;SDS011;46975;51.898;11.444;2022-10-30T08:35:59;10.82;;;2.90;;
61091;SDS011;46975;51.898;11.444;2022-10-30T08:38:26;10.52;;;3.10;;
61091;SDS011;46975;51.898;11.444;2022-10-30T08:40:53;11.43;;;3.22;;
61091;SDS011;46975;51.898;11.444;2022-10-30T08:43:19;12.75;;;5.05;;
61091;SDS011;46975;51.898;11.444;2022-10-30T08:45:44;6.97;;;3.03;;
61091;SDS011;46975;51.898;11.444;2022-10-30T08:48:11;9.10;;;4.50;;
61091;SDS011;46975;51.898;11.444;2022-10-30T08:50:39;8.65;;;3.38;;
61091;SDS011;46975;51.898;11.444;2022-10-30T08:53:05;9.13;;;3.70;;
61091;SDS011;46975;51.898;11.444;2022-10-30T08:55:33;13.18;;;4.50;;
61091;SDS011;46975;51.898;11.444;2022-10-30T08:57:59;5.47;;;3.58;;
61091;SDS011;46975;51.898;11.444;2022-10-30T09:00:26;11.25;;;4.18;;
61091;SDS011;46975;51.898;11.444;2022-10-30T09:02:52;7.30;;;3.95;;
61091;SDS011;46975;51.898;11.444;2022-10-30T09:05:18;10.68;;;4.40;;
61091;SDS011;46975;51.898;11.444;2022-10-30T09:07:44;12.80;;;4.55;;
61091;SDS011;46975;51.898;11.444;2022-10-30T09:10:10;13.73;;;4.97;;
61091;SDS011;46975;51.898;11.444;2022-10-30T09:12:36;11.15;;;3.45;;
61091;SDS011;46975;51.898;11.444;2022-10-30T09:15:01;11.75;;;3.92;;
61091;SDS011;46975;51.898;11.444;2022-10-30T09:17:28;8.55;;;3.50;;
61091;SDS011;46975;51.898;11.444;2022-10-30T09:19:53;11.75;;;4.22;;
61091;SDS011;46975;51.898;11.444;2022-10-30T09:22:19;18.27;;;5.93;;
61091;SDS011;46975;51.898;11.444;2022-10-30T09:24:44;7.85;;;4.18;;
61091;SDS011;46975;51.898;11.444;2022-10-30T09:27:10;11.45;;;3.83;;
61091;SDS011;46975;51.898;11.444;2022-10-30T09:29:36;7.25;;;3.45;;
61091;SDS011;46975;51.898;11.444;2022-10-30T09:32:02;7.00;;;3.60;;
61091;SDS011;46975;51.898;11.444;2022-10-30T09:34:32;8.00;;;3.60;;
61091;SDS011;46975;51.898;11.444;2022-10-30T09:36:58;9.30;;;3.95;;
61091;SDS011;46975;51.898;11.444;2022-10-30T09:39:24;6.80;;;3.35;;
61091;SDS011;46975;51.898;11.444;2022-10-30T09:50:24;11.68;;;4.00;;
61091;SDS011;46975;51.898;11.444;2022-10-30T09:53:02;13.40;;;3.55;;
61091;SDS011;46975;51.898;11.444;2022-10-30T10:04:02;11.60;;;4.20;;
61091;SDS011;46975;51.898;11.444;2022-10-30T10:06:30;11.00;;;4.00;;
61091;SDS011;46975;51.898;11.444;2022-10-30T10:09:02;10.43;;;3.92;;
61091;SDS011;46975;51.898;11.444;2022-10-30T10:11:33;7.97;;;3.90;;
61091;SDS011;46975;51.898;11.444;2022-10-30T10:16:43;8.90;;;3.33;;
61091;SDS011;46975;51.898;11.444;2022-10-30T10:19:25;8.68;;;3.75;;
61091;SDS011;46975;51.898;11.444;2022-10-30T10:21:57;9.07;;;4.05;;
61091;SDS011;46975;51.898;11.444;2022-10-30T10:24:25;9.63;;;4.28;;
61091;SDS011;46975;51.898;11.444;2022-10-30T10:27:02;5.65;;;2.97;;
61091;SDS011;46975;51.898;11.444;2022-10-30T10:29:55;9.60;;;3.30;;
61091;SDS011;46975;51.898;11.444;2022-10-30T10:37:51;9.45;;;3.83;;
61091;SDS011;46975;51.898;11.444;2022-10-30T10:51:42;10.55;;;3.75;;
61091;SDS011;46975;51.898;11.444;2022-10-30T10:56:43;10.88;;;3.55;;
61091;SDS011;46975;51.898;11.444;2022-10-30T10:59:17;6.53;;;3.35;;
61091;SDS011;46975;51.898;11.444;2022-10-30T11:01:45;11.07;;;3.10;;
61091;SDS011;46975;51.898;11.444;2022-10-30T11:04:26;14.52;;;4.13;;
61091;SDS011;46975;51.898;11.444;2022-10-30T11:06:58;8.95;;;3.58;;
61091;SDS011;46975;51.898;11.444;2022-10-30T11:09:52;12.63;;;4.03;;
61091;SDS011;46975;51.898;11.444;2022-10-30T11:12:20;9.25;;;3.20;;
61091;SDS011;46975;51.898;11.444;2022-10-30T11:14:50;14.30;;;4.20;;
61091;SDS011;46975;51.898;11.444;2022-10-30T11:17:21;6.93;;;2.88;;
61091;SDS011;46975;51.898;11.444;2022-10-30T11:19:48;13.38;;;5.13;;
61091;SDS011;46975;51.898;11.444;2022-10-30T11:22:29;10.27;;;3.80;;
61091;SDS011;46975;51.898;11.444;2022-10-30T11:27:41;7.35;;;3.72;;
61091;SDS011;46975;51.898;11.444;2022-10-30T11:30:19;10.10;;;3.08;;
61091;SDS011;46975;51.898;11.444;2022-10-30T11:32:47;12.40;;;3.90;;
61091;SDS011;46975;51.898;11.444;2022-10-30T11:35:13;7.63;;;2.90;;
61091;SDS011;46975;51.898;11.444;2022-10-30T11:37:41;16.23;;;3.92;;
61091;SDS011;46975;51.898;11.444;2022-10-30T11:42:39;8.60;;;3.20;;
61091;SDS011;46975;51.898;11.444;2022-10-30T11:45:28;10.07;;;2.80;;
61091;SDS011;46975;51.898;11.444;2022-10-30T11:48:22;7.38;;;3.25;;
61091;SDS011;46975;51.898;11.444;2022-10-30T11:50:54;8.68;;;3.45;;
61091;SDS011;46975;51.898;11.444;2022-10-30T11:53:24;7.20;;;3.03;;
61091;SDS011;46975;51.898;11.444;2022-10-30T11:55:58;11.63;;;3.70;;
61091;SDS011;46975;51.898;11.444;2022-10-30T11:58:34;12.30;;;3.20;;
61091;SDS011;46975;51.898;11.444;2022-10-30T12:01:05;9.88;;;3.08;;
61091;SDS011;46975;51.898;11.444;2022-10-30T12:03:38;10.13;;;3.15;;
61091;SDS011;46975;51.898;11.444;2022-10-30T12:06:10;11.73;;;3.58;;
61091;SDS011;46975;51.898;11.444;2022-10-30T12:09:00;15.95;;;3.60;;
61091;SDS011;46975;51.898;11.444;2022-10-30T12:11:27;16.05;;;4.57;;
61091;SDS011;46975;51.898;11.444;2022-10-30T12:13:55;8.88;;;3.35;;
61091;SDS011;46975;51.898;11.444;2022-10-30T12:16:22;7.68;;;3.63;;
61091;SDS011;46975;51.898;11.444;2022-10-30T12:21:20;14.95;;;3.15;;
61091;SDS011;46975;51.898;11.444;2022-10-30T12:23:50;16.45;;;4.07;;
61091;SDS011;46975;51.898;11.444;2022-10-30T12:26:19;10.60;;;2.80;;
61091;SDS011;46975;51.898;11.444;2022-10-30T12:28:50;12.38;;;3.35;;
61091;SDS011;46975;51.898;11.444;2022-10-30T12:31:41;9.77;;;3.42;;
61091;SDS011;46975;51.898;11.444;2022-10-30T12:37:10;11.75;;;2.95;;
61091;SDS011;46975;51.898;11.444;2022-10-30T12:42:16;13.10;;;4.05;;
61091;SDS011;46975;51.898;11.444;2022-10-30T12:44:47;14.07;;;3.38;;
61091;SDS011;46975;51.898;11.444;2022-10-30T12:47:47;8.20;;;3.55;;
61091;SDS011;46975;51.898;11.444;2022-10-30T12:50:17;7.75;;;2.97;;
61091;SDS011;46975;51.898;11.444;2022-10-30T12:52:50;9.45;;;3.53;;
61091;SDS011;46975;51.898;11.444;2022-10-30T12:55:25;7.63;;;2.83;;
61091;SDS011;46975;51.898;11.444;2022-10-30T12:58:02;9.80;;;3.72;;
61091;SDS011;46975;51.898;11.444;2022-10-30T13:00:30;9.80;;;3.75;;
61091;SDS011;46975;51.898;11.444;2022-10-30T13:03:38;9.95;;;3.15;;
61091;SDS011;46975;51.898;11.444;2022-10-30T13:06:04;8.27;;;3.42;;
61091;SDS011;46975;51.898;11.444;2022-10-30T13:08:43;11.68;;;3.90;;
61091;SDS011;46975;51.898;11.444;2022-10-30T13:14:17;13.60;;;3.55;;
61091;SDS011;46975;51.898;11.444;2022-10-30T13:16:45;11.23;;;3.10;;
61091;SDS011;46975;51.898;11.444;2022-10-30T13:19:11;10.30;;;3.97;;
61091;SDS011;46975;51.898;11.444;2022-10-30T13:24:14;10.10;;;2.95;;
61091;SDS011;46975;51.898;11.444;2022-10-30T13:26:52;8.63;;;3.13;;
61091;SDS011;46975;51.898;11.444;2022-10-30T13:34:39;8.02;;;3.30;;
61091;SDS011;46975;51.898;11.444;2022-10-30T13:37:57;11.20;;;3.88;;
61091;SDS011;46975;51.898;11.444;2022-10-30T13:40:25;25.60;;;4.30;;
61091;SDS011;46975;51.898;11.444;2022-10-30T13:43:12;8.40;;;3.63;;
61091;SDS011;46975;51.898;11.444;2022-10-30T13:54:00;12.15;;;3.42;;
61091;SDS011;46975;51.898;11.444;2022-10-30T13:56:28;12.63;;;4.72;;
61091;SDS011;46975;51.898;11.444;2022-10-30T13:59:03;7.65;;;3.65;;
61091;SDS011;46975;51.898;11.444;2022-10-30T14:02:04;11.20;;;3.58;;
61091;SDS011;46975;51.898;11.444;2022-10-30T14:23:13;10.07;;;3.95;;
61091;SDS011;46975;51.898;11.444;2022-10-30T14:26:06;8.00;;;2.88;;
61091;SDS011;46975;51.898;11.444;2022-10-30T14:28:30;11.32;;;4.03;;
61091;SDS011;46975;51.898;11.444;2022-10-30T14:31:05;11.20;;;3.92;;
61091;SDS011;46975;51.898;11.444;2022-10-30T14:36:19;12.60;;;3.67;;
61091;SDS011;46975;51.898;11.444;2022-10-30T14:44:18;10.68;;;4.03;;
61091;SDS011;46975;51.898;11.444;2022-10-30T14:55:01;11.75;;;3.90;;
61091;SDS011;46975;51.898;11.444;2022-10-30T14:57:52;10.70;;;4.15;;
61091;SDS011;46975;51.898;11.444;2022-10-30T15:03:09;15.05;;;4.10;;
61091;SDS011;46975;51.898;11.444;2022-10-30T15:11:14;11.75;;;3.78;;
61091;SDS011;46975;51.898;11.444;2022-10-30T15:13:45;12.27;;;4.70;;
61091;SDS011;46975;51.898;11.444;2022-10-30T15:16:13;17.42;;;4.45;;
61091;SDS011;46975;51.898;11.444;2022-10-30T15:18:46;10.13;;;3.63;;
61091;SDS011;46975;51.898;11.444;2022-10-30T15:21:17;12.00;;;4.05;;
61091;SDS011;46975;51.898;11.444;2022-10-30T15:23:49;9.38;;;4.07;;
61091;SDS011;46975;51.898;11.444;2022-10-30T15:26:17;9.10;;;4.28;;
61091;SDS011;46975;51.898;11.444;2022-10-30T15:28:46;11.40;;;4.13;;
61091;SDS011;46975;51.898;11.444;2022-10-30T15:31:25;10.00;;;4.13;;
61091;SDS011;46975;51.898;11.444;2022-10-30T15:33:52;15.18;;;5.10;;
61091;SDS011;46975;51.898;11.444;2022-10-30T15:38:44;11.82;;;4.60;;
61091;SDS011;46975;51.898;11.444;2022-10-30T15:41:44;16.08;;;5.55;;
61091;SDS011;46975;51.898;11.444;2022-10-30T15:44:14;11.10;;;4.65;;
61091;SDS011;46975;51.898;11.444;2022-10-30T15:46:44;12.38;;;4.43;;
61091;SDS011;46975;51.898;11.444;2022-10-30T15:49:13;14.80;;;4.77;;
61091;SDS011;46975;51.898;11.444;2022-10-30T15:51:43;10.52;;;5.00;;
61091;SDS011;46975;51.898;11.444;2022-10-30T15:54:11;17.40;;;6.22;;
61091;SDS011;46975;51.898;11.444;2022-10-30T15:56:43;10.25;;;4.55;;
61091;SDS011;46975;51.898;11.444;2022-10-30T15:59:15;14.88;;;4.20;;
61091;SDS011;46975;51.898;11.444;2022-10-30T16:01:55;12.55;;;4.47;;
61091;SDS011;46975;51.898;11.444;2022-10-30T16:04:23;16.92;;;6.55;;
61091;SDS011;46975;51.898;11.444;2022-10-30T16:06:54;14.50;;;6.53;;
61091;SDS011;46975;51.898;11.444;2022-10-30T16:09:22;18.48;;;6.00;;
61091;SDS011;46975;51.898;11.444;2022-10-30T16:11:49;14.18;;;7.22;;
61091;SDS011;46975;51.898;11.444;2022-10-30T16:14:20;10.90;;;5.80;;
61091;SDS011;46975;51.898;11.444;2022-10-30T16:16:48;14.93;;;6.30;;
61091;SDS011;46975;51.898;11.444;2022-10-30T16:19:25;10.95;;;6.30;;
61091;SDS011;46975;51.898;11.444;2022-10-30T16:21:54;17.80;;;9.20;;
61091;SDS011;46975;51.898;11.444;2022-10-30T16:24:22;13.05;;;7.90;;
61091;SDS011;46975;51.898;11.444;2022-10-30T16:27:06;12.27;;;5.90;;
61091;SDS011;46975;51.898;11.444;2022-10-30T16:29:43;14.75;;;6.88;;
61091;SDS011;46975;51.898;11.444;2022-10-30T16:32:15;21.90;;;10.95;;
61091;SDS011;46975;51.898;11.444;2022-10-30T16:34:45;28.13;;;13.40;;
61091;SDS011;46975;51.898;11.444;2022-10-30T16:37:13;26.50;;;15.70;;
61091;SDS011;46975;51.898;11.444;2022-10-30T16:39:43;21.90;;;12.73;;
61091;SDS011;46975;51.898;11.444;2022-10-30T16:42:17;18.77;;;9.70;;
61091;SDS011;46975;51.898;11.444;2022-10-30T16:44:44;20.15;;;9.68;;
61091;SDS011;46975;51.898;11.444;2022-10-30T16:49:43;18.92;;;8.98;;
61091;SDS011;46975;51.898;11.444;2022-10-30T16:52:15;14.77;;;6.75;;
61091;SDS011;46975;51.898;11.444;2022-10-30T16:54:51;12.25;;;5.70;;
61091;SDS011;46975;51.898;11.444;2022-10-30T16:57:34;15.90;;;5.55;;
61091;SDS011;46975;51.898;11.444;2022-10-30T17:00:02;19.35;;;6.53;;
61091;SDS011;46975;51.898;11.444;2022-10-30T17:02:30;14.23;;;5.28;;
61091;SDS011;46975;51.898;11.444;2022-10-30T17:07:56;15.27;;;6.47;;
61091;SDS011;46975;51.898;11.444;2022-10-30T17:13:38;19.23;;;6.47;;